sensor_id;sensor_type;location;lat;lon;timestamp;pressure;altitude;pressure_sealevel;temperature;humidity
47811;BME280;33575;52.600;7.318;2023-07-13T00:00:39;101119.95;;;17.22;82.95
47811;BME280;33575;52.600;7.318;2023-07-13T00:03:10;101119.62;;;17.22;82.68
47811;BME280;33575;52.600;7.318;2023-07-13T00:05:40;101117.50;;;17.17;83.14
47811;BME280;33575;52.600;7.318;2023-07-13T00:08:10;101120.33;;;17.17;82.70
47811;BME280;33575;52.600;7.318;2023-07-13T00:10:41;101122.02;;;17.11;83.17
47811;BME280;33575;52.600;7.318;2023-07-13T00:13:11;101123.49;;;17.13;82.81
47811;BME280;33575;52.600;7.318;2023-07-13T00:15:41;101122.34;;;17.06;83.25
47811;BME280;33575;52.600;7.318;2023-07-13T00:18:11;101122.87;;;17.06;82.99
47811;BME280;33575;52.600;7.318;2023-07-13T00:20:42;101122.73;;;17.01;82.87
47811;BME280;33575;52.600;7.318;2023-07-13T00:23:12;101124.96;;;16.98;83.10
47811;BME280;33575;52.600;7.318;2023-07-13T00:25:43;101125.75;;;16.91;83.26
47811;BME280;33575;52.600;7.318;2023-07-13T00:28:13;101125.79;;;16.94;82.99
47811;BME280;33575;52.600;7.318;2023-07-13T00:30:43;101130.23;;;16.96;83.07
47811;BME280;33575;52.600;7.318;2023-07-13T00:33:18;101131.91;;;16.95;83.29
47811;BME280;33575;52.600;7.318;2023-07-13T00:35:45;101129.68;;;16.94;83.84
47811;BME280;33575;52.600;7.318;2023-07-13T00:38:15;101131.08;;;16.93;83.04
47811;BME280;33575;52.600;7.318;2023-07-13T00:40:45;101129.68;;;16.89;83.37
47811;BME280;33575;52.600;7.318;2023-07-13T00:43:17;101127.07;;;16.93;83.49
47811;BME280;33575;52.600;7.318;2023-07-13T00:48:19;101128.51;;;16.65;84.43
47811;BME280;33575;52.600;7.318;2023-07-13T00:50:49;101127.24;;;16.78;84.18
47811;BME280;33575;52.600;7.318;2023-07-13T00:53:17;101129.86;;;16.79;84.34
47811;BME280;33575;52.600;7.318;2023-07-13T00:55:49;101131.43;;;16.77;84.16
47811;BME280;33575;52.600;7.318;2023-07-13T00:58:17;101131.49;;;16.69;84.54
47811;BME280;33575;52.600;7.318;2023-07-13T01:00:48;101128.20;;;16.68;84.68
47811;BME280;33575;52.600;7.318;2023-07-13T01:03:18;101127.50;;;16.60;85.31
47811;BME280;33575;52.600;7.318;2023-07-13T01:05:49;101128.53;;;16.72;84.39
47811;BME280;33575;52.600;7.318;2023-07-13T01:08:18;101132.21;;;16.74;84.48
47811;BME280;33575;52.600;7.318;2023-07-13T01:10:53;101132.73;;;16.76;84.64
47811;BME280;33575;52.600;7.318;2023-07-13T01:13:19;101130.49;;;16.79;84.59
47811;BME280;33575;52.600;7.318;2023-07-13T01:15:51;101128.09;;;16.78;84.41
47811;BME280;33575;52.600;7.318;2023-07-13T01:18:22;101127.95;;;16.70;85.40
47811;BME280;33575;52.600;7.318;2023-07-13T01:20:52;101132.70;;;16.66;85.77
47811;BME280;33575;52.600;7.318;2023-07-13T01:23:21;101132.33;;;16.64;85.55
47811;BME280;33575;52.600;7.318;2023-07-13T01:25:52;101134.41;;;16.68;85.97
47811;BME280;33575;52.600;7.318;2023-07-13T01:28:23;101138.16;;;16.69;85.83
47811;BME280;33575;52.600;7.318;2023-07-13T01:30:52;101142.23;;;16.66;85.86
47811;BME280;33575;52.600;7.318;2023-07-13T01:33:22;101141.74;;;16.72;86.22
47811;BME280;33575;52.600;7.318;2023-07-13T01:35:53;101141.37;;;16.71;86.10
47811;BME280;33575;52.600;7.318;2023-07-13T01:38:23;101139.49;;;16.74;86.74
47811;BME280;33575;52.600;7.318;2023-07-13T01:40:53;101134.73;;;16.78;86.33
47811;BME280;33575;52.600;7.318;2023-07-13T01:43:23;101130.66;;;16.82;86.18
47811;BME280;33575;52.600;7.318;2023-07-13T01:45:54;101131.15;;;16.73;87.20
47811;BME280;33575;52.600;7.318;2023-07-13T01:48:24;101131.96;;;16.76;86.25
47811;BME280;33575;52.600;7.318;2023-07-13T01:50:55;101133.07;;;16.76;86.50
47811;BME280;33575;52.600;7.318;2023-07-13T01:53:25;101136.53;;;16.81;86.60
47811;BME280;33575;52.600;7.318;2023-07-13T01:55:55;101130.92;;;16.81;86.52
47811;BME280;33575;52.600;7.318;2023-07-13T01:58:26;101129.33;;;16.80;87.29
47811;BME280;33575;52.600;7.318;2023-07-13T02:00:56;101133.86;;;16.79;87.70
47811;BME280;33575;52.600;7.318;2023-07-13T02:03:26;101128.90;;;16.80;86.96
47811;BME280;33575;52.600;7.318;2023-07-13T02:05:57;101128.63;;;16.73;87.41
47811;BME280;33575;52.600;7.318;2023-07-13T02:08:27;101129.34;;;16.77;86.95
47811;BME280;33575;52.600;7.318;2023-07-13T02:10:57;101125.74;;;16.87;86.71
47811;BME280;33575;52.600;7.318;2023-07-13T02:13:28;101126.85;;;16.86;87.89
47811;BME280;33575;52.600;7.318;2023-07-13T02:15:58;101127.75;;;16.73;87.40
47811;BME280;33575;52.600;7.318;2023-07-13T02:18:28;101127.24;;;16.84;86.81
47811;BME280;33575;52.600;7.318;2023-07-13T02:20:58;101125.94;;;16.92;86.83
47811;BME280;33575;52.600;7.318;2023-07-13T02:23:29;101130.12;;;17.01;86.74
47811;BME280;33575;52.600;7.318;2023-07-13T02:26:02;101131.38;;;16.97;87.07
47811;BME280;33575;52.600;7.318;2023-07-13T02:28:29;101127.77;;;16.98;86.54
47811;BME280;33575;52.600;7.318;2023-07-13T02:31:05;101132.98;;;16.92;87.09
47811;BME280;33575;52.600;7.318;2023-07-13T02:33:30;101134.54;;;17.01;86.46
47811;BME280;33575;52.600;7.318;2023-07-13T02:36:01;101135.10;;;16.97;86.34
47811;BME280;33575;52.600;7.318;2023-07-13T02:38:31;101138.46;;;16.88;86.97
47811;BME280;33575;52.600;7.318;2023-07-13T02:41:02;101135.35;;;16.87;86.87
47811;BME280;33575;52.600;7.318;2023-07-13T02:43:32;101135.68;;;16.87;86.85
47811;BME280;33575;52.600;7.318;2023-07-13T02:46:02;101136.31;;;16.71;87.45
47811;BME280;33575;52.600;7.318;2023-07-13T02:48:32;101138.02;;;16.81;87.11
47811;BME280;33575;52.600;7.318;2023-07-13T02:51:03;101135.38;;;16.73;87.18
47811;BME280;33575;52.600;7.318;2023-07-13T02:53:33;101134.97;;;16.76;87.50
47811;BME280;33575;52.600;7.318;2023-07-13T02:56:04;101136.32;;;16.65;87.22
47811;BME280;33575;52.600;7.318;2023-07-13T02:58:34;101137.81;;;16.74;87.10
47811;BME280;33575;52.600;7.318;2023-07-13T03:01:07;101135.60;;;16.76;87.42
47811;BME280;33575;52.600;7.318;2023-07-13T03:03:35;101137.58;;;16.84;87.26
47811;BME280;33575;52.600;7.318;2023-07-13T03:06:05;101137.31;;;16.73;87.27
47811;BME280;33575;52.600;7.318;2023-07-13T03:08:35;101133.82;;;16.74;87.08
47811;BME280;33575;52.600;7.318;2023-07-13T03:11:08;101136.85;;;16.81;86.63
47811;BME280;33575;52.600;7.318;2023-07-13T03:13:36;101133.19;;;16.84;86.82
47811;BME280;33575;52.600;7.318;2023-07-13T03:16:07;101130.02;;;16.90;86.93
47811;BME280;33575;52.600;7.318;2023-07-13T03:18:38;101136.33;;;16.96;86.54
47811;BME280;33575;52.600;7.318;2023-07-13T03:21:08;101138.52;;;16.83;87.22
47811;BME280;33575;52.600;7.318;2023-07-13T03:23:38;101142.02;;;16.85;86.81
47811;BME280;33575;52.600;7.318;2023-07-13T03:26:11;101147.90;;;16.84;87.07
47811;BME280;33575;52.600;7.318;2023-07-13T03:28:39;101150.38;;;16.83;86.83
47811;BME280;33575;52.600;7.318;2023-07-13T03:31:11;101147.29;;;16.84;86.66
47811;BME280;33575;52.600;7.318;2023-07-13T03:33:39;101149.71;;;16.92;86.51
47811;BME280;33575;52.600;7.318;2023-07-13T03:36:16;101154.72;;;16.96;86.75
47811;BME280;33575;52.600;7.318;2023-07-13T03:38:39;101154.86;;;16.90;87.01
47811;BME280;33575;52.600;7.318;2023-07-13T03:41:10;101155.65;;;16.93;86.47
47811;BME280;33575;52.600;7.318;2023-07-13T03:43:40;101157.50;;;16.77;86.91
47811;BME280;33575;52.600;7.318;2023-07-13T03:46:11;101161.57;;;16.79;86.65
47811;BME280;33575;52.600;7.318;2023-07-13T03:48:42;101161.78;;;16.74;86.77
47811;BME280;33575;52.600;7.318;2023-07-13T03:51:12;101164.94;;;16.75;86.72
47811;BME280;33575;52.600;7.318;2023-07-13T03:53:43;101164.31;;;16.71;86.88
47811;BME280;33575;52.600;7.318;2023-07-13T03:56:13;101168.83;;;16.75;86.87
47811;BME280;33575;52.600;7.318;2023-07-13T03:58:44;101169.67;;;16.80;87.10
47811;BME280;33575;52.600;7.318;2023-07-13T04:01:14;101167.78;;;16.82;87.13
47811;BME280;33575;52.600;7.318;2023-07-13T04:03:44;101163.43;;;16.84;87.31
47811;BME280;33575;52.600;7.318;2023-07-13T04:06:16;101161.47;;;16.88;86.64
47811;BME280;33575;52.600;7.318;2023-07-13T04:08:44;101164.26;;;16.92;86.65
47811;BME280;33575;52.600;7.318;2023-07-13T04:11:14;101163.63;;;16.96;86.63
47811;BME280;33575;52.600;7.318;2023-07-13T04:13:45;101174.15;;;16.98;86.67
47811;BME280;33575;52.600;7.318;2023-07-13T04:16:16;101178.03;;;16.90;86.34
47811;BME280;33575;52.600;7.318;2023-07-13T04:18:46;101177.79;;;16.89;86.48
47811;BME280;33575;52.600;7.318;2023-07-13T04:21:16;101176.06;;;16.72;87.47
47811;BME280;33575;52.600;7.318;2023-07-13T04:23:46;101179.02;;;16.83;86.78
47811;BME280;33575;52.600;7.318;2023-07-13T04:26:16;101177.75;;;16.81;87.14
47811;BME280;33575;52.600;7.318;2023-07-13T04:28:47;101178.78;;;16.60;88.67
47811;BME280;33575;52.600;7.318;2023-07-13T04:31:17;101182.60;;;16.70;87.95
47811;BME280;33575;52.600;7.318;2023-07-13T04:33:49;101190.22;;;16.67;88.22
47811;BME280;33575;52.600;7.318;2023-07-13T04:36:18;101186.93;;;16.72;88.02
47811;BME280;33575;52.600;7.318;2023-07-13T04:38:48;101188.34;;;16.63;88.46
47811;BME280;33575;52.600;7.318;2023-07-13T04:41:18;101192.48;;;16.48;88.78
47811;BME280;33575;52.600;7.318;2023-07-13T04:43:49;101188.81;;;16.41;89.28
47811;BME280;33575;52.600;7.318;2023-07-13T04:46:19;101194.33;;;16.55;88.35
47811;BME280;33575;52.600;7.318;2023-07-13T04:48:50;101190.04;;;16.57;88.70
47811;BME280;33575;52.600;7.318;2023-07-13T04:51:20;101189.79;;;16.64;89.15
47811;BME280;33575;52.600;7.318;2023-07-13T04:53:53;101189.74;;;16.65;88.48
47811;BME280;33575;52.600;7.318;2023-07-13T04:56:21;101194.18;;;16.68;88.45
47811;BME280;33575;52.600;7.318;2023-07-13T04:58:51;101197.28;;;16.71;88.64
47811;BME280;33575;52.600;7.318;2023-07-13T05:01:21;101198.89;;;16.70;89.52
47811;BME280;33575;52.600;7.318;2023-07-13T05:03:52;101200.06;;;16.75;89.27
47811;BME280;33575;52.600;7.318;2023-07-13T05:06:22;101201.40;;;16.60;89.51
47811;BME280;33575;52.600;7.318;2023-07-13T05:08:52;101203.74;;;16.63;89.33
47811;BME280;33575;52.600;7.318;2023-07-13T05:11:24;101204.05;;;16.55;90.01
47811;BME280;33575;52.600;7.318;2023-07-13T05:13:53;101204.94;;;16.49;89.99
47811;BME280;33575;52.600;7.318;2023-07-13T05:16:24;101208.30;;;16.57;90.00
47811;BME280;33575;52.600;7.318;2023-07-13T05:18:54;101209.42;;;16.54;89.96
47811;BME280;33575;52.600;7.318;2023-07-13T05:21:24;101210.99;;;16.48;90.54
47811;BME280;33575;52.600;7.318;2023-07-13T05:23:55;101211.48;;;16.35;91.58
47811;BME280;33575;52.600;7.318;2023-07-13T05:26:25;101215.02;;;16.39;90.80
47811;BME280;33575;52.600;7.318;2023-07-13T05:28:55;101215.70;;;16.42;90.87
47811;BME280;33575;52.600;7.318;2023-07-13T05:31:26;101220.26;;;16.55;90.54
47811;BME280;33575;52.600;7.318;2023-07-13T05:33:56;101220.34;;;16.59;90.94
47811;BME280;33575;52.600;7.318;2023-07-13T05:36:26;101225.08;;;16.68;90.48
47811;BME280;33575;52.600;7.318;2023-07-13T05:38:57;101228.90;;;16.59;90.96
47811;BME280;33575;52.600;7.318;2023-07-13T05:41:27;101224.12;;;16.48;91.07
47811;BME280;33575;52.600;7.318;2023-07-13T05:43:57;101228.86;;;16.51;91.07
47811;BME280;33575;52.600;7.318;2023-07-13T05:46:28;101227.17;;;16.50;91.64
47811;BME280;33575;52.600;7.318;2023-07-13T05:48:58;101231.83;;;16.59;91.38
47811;BME280;33575;52.600;7.318;2023-07-13T05:51:28;101231.13;;;16.62;91.71
47811;BME280;33575;52.600;7.318;2023-07-13T05:53:59;101228.81;;;16.58;91.60
47811;BME280;33575;52.600;7.318;2023-07-13T05:56:29;101229.20;;;16.71;91.40
47811;BME280;33575;52.600;7.318;2023-07-13T05:58:59;101231.29;;;16.81;91.32
47811;BME280;33575;52.600;7.318;2023-07-13T06:01:31;101233.63;;;16.86;91.32
47811;BME280;33575;52.600;7.318;2023-07-13T06:04:01;101236.53;;;16.84;91.32
47811;BME280;33575;52.600;7.318;2023-07-13T06:06:32;101237.79;;;16.77;91.67
47811;BME280;33575;52.600;7.318;2023-07-13T06:09:02;101238.04;;;16.74;91.56
47811;BME280;33575;52.600;7.318;2023-07-13T06:11:32;101245.12;;;16.91;91.37
47811;BME280;33575;52.600;7.318;2023-07-13T06:14:03;101247.90;;;17.04;91.42
47811;BME280;33575;52.600;7.318;2023-07-13T06:16:33;101250.55;;;17.07;90.72
47811;BME280;33575;52.600;7.318;2023-07-13T06:19:04;101254.95;;;17.07;91.64
47811;BME280;33575;52.600;7.318;2023-07-13T06:21:34;101258.93;;;16.88;92.39
47811;BME280;33575;52.600;7.318;2023-07-13T06:24:05;101262.80;;;17.04;91.70
47811;BME280;33575;52.600;7.318;2023-07-13T06:26:35;101264.05;;;17.08;91.43
47811;BME280;33575;52.600;7.318;2023-07-13T06:29:06;101268.60;;;17.08;91.65
47811;BME280;33575;52.600;7.318;2023-07-13T06:31:36;101270.15;;;17.03;90.98
47811;BME280;33575;52.600;7.318;2023-07-13T06:34:06;101273.31;;;17.20;90.59
47811;BME280;33575;52.600;7.318;2023-07-13T06:36:37;101277.53;;;17.23;90.42
47811;BME280;33575;52.600;7.318;2023-07-13T06:39:07;101284.70;;;17.28;91.33
47811;BME280;33575;52.600;7.318;2023-07-13T06:41:37;101286.99;;;17.29;91.91
47811;BME280;33575;52.600;7.318;2023-07-13T06:44:08;101286.48;;;17.42;90.60
47811;BME280;33575;52.600;7.318;2023-07-13T06:46:38;101286.12;;;17.47;90.30
47811;BME280;33575;52.600;7.318;2023-07-13T06:49:08;101290.59;;;17.54;89.99
47811;BME280;33575;52.600;7.318;2023-07-13T06:51:39;101290.99;;;17.55;89.82
47811;BME280;33575;52.600;7.318;2023-07-13T06:54:09;101291.15;;;17.40;90.87
47811;BME280;33575;52.600;7.318;2023-07-13T06:56:40;101293.90;;;17.48;90.80
47811;BME280;33575;52.600;7.318;2023-07-13T06:59:10;101292.46;;;17.41;92.21
47811;BME280;33575;52.600;7.318;2023-07-13T07:01:42;101292.74;;;17.57;90.75
47811;BME280;33575;52.600;7.318;2023-07-13T07:04:11;101291.57;;;17.67;90.72
47811;BME280;33575;52.600;7.318;2023-07-13T07:06:41;101296.91;;;17.65;91.06
47811;BME280;33575;52.600;7.318;2023-07-13T07:09:11;101304.63;;;17.84;90.66
47811;BME280;33575;52.600;7.318;2023-07-13T07:11:47;101299.98;;;17.71;90.34
47811;BME280;33575;52.600;7.318;2023-07-13T07:14:12;101298.29;;;17.75;90.74
47811;BME280;33575;52.600;7.318;2023-07-13T07:16:42;101302.10;;;17.75;91.01
47811;BME280;33575;52.600;7.318;2023-07-13T07:19:13;101302.62;;;17.72;90.01
47811;BME280;33575;52.600;7.318;2023-07-13T07:21:43;101306.06;;;17.85;89.18
47811;BME280;33575;52.600;7.318;2023-07-13T07:24:13;101306.18;;;17.95;89.69
47811;BME280;33575;52.600;7.318;2023-07-13T07:26:47;101309.03;;;17.97;89.38
47811;BME280;33575;52.600;7.318;2023-07-13T07:29:18;101298.82;;;18.06;90.36
47811;BME280;33575;52.600;7.318;2023-07-13T07:31:49;101296.20;;;18.09;90.98
47811;BME280;33575;52.600;7.318;2023-07-13T07:34:15;101303.39;;;18.20;90.04
47811;BME280;33575;52.600;7.318;2023-07-13T07:36:48;101303.79;;;18.34;91.00
47811;BME280;33575;52.600;7.318;2023-07-13T07:39:16;101301.02;;;18.53;89.32
47811;BME280;33575;52.600;7.318;2023-07-13T07:41:51;101305.13;;;18.36;88.82
47811;BME280;33575;52.600;7.318;2023-07-13T07:44:17;101302.83;;;18.47;88.79
47811;BME280;33575;52.600;7.318;2023-07-13T07:46:47;101300.64;;;18.54;89.40
47811;BME280;33575;52.600;7.318;2023-07-13T07:49:18;101303.69;;;18.48;88.49
47811;BME280;33575;52.600;7.318;2023-07-13T07:51:49;101307.22;;;18.45;88.51
47811;BME280;33575;52.600;7.318;2023-07-13T07:54:24;101307.73;;;18.61;88.95
47811;BME280;33575;52.600;7.318;2023-07-13T07:56:54;101307.72;;;18.68;88.84
47811;BME280;33575;52.600;7.318;2023-07-13T07:59:23;101307.36;;;18.78;88.76
47811;BME280;33575;52.600;7.318;2023-07-13T08:01:53;101307.49;;;18.81;87.76
47811;BME280;33575;52.600;7.318;2023-07-13T08:04:23;101303.90;;;18.81;87.63
47811;BME280;33575;52.600;7.318;2023-07-13T08:06:51;101301.67;;;18.90;88.73
47811;BME280;33575;52.600;7.318;2023-07-13T08:09:21;101301.06;;;18.92;88.01
47811;BME280;33575;52.600;7.318;2023-07-13T08:11:54;101305.89;;;18.96;87.34
47811;BME280;33575;52.600;7.318;2023-07-13T08:14:21;101305.51;;;19.02;87.72
47811;BME280;33575;52.600;7.318;2023-07-13T08:16:52;101310.20;;;19.06;88.14
47811;BME280;33575;52.600;7.318;2023-07-13T08:19:22;101308.81;;;19.09;86.85
47811;BME280;33575;52.600;7.318;2023-07-13T08:21:52;101308.45;;;18.95;85.78
47811;BME280;33575;52.600;7.318;2023-07-13T08:24:23;101316.08;;;18.90;85.85
47811;BME280;33575;52.600;7.318;2023-07-13T08:26:53;101311.49;;;18.77;86.00
47811;BME280;33575;52.600;7.318;2023-07-13T08:29:24;101310.81;;;18.83;86.00
47811;BME280;33575;52.600;7.318;2023-07-13T08:31:54;101311.11;;;18.65;86.67
47811;BME280;33575;52.600;7.318;2023-07-13T08:34:24;101311.24;;;18.68;86.72
47811;BME280;33575;52.600;7.318;2023-07-13T08:36:54;101307.34;;;18.74;86.30
47811;BME280;33575;52.600;7.318;2023-07-13T08:39:25;101303.44;;;18.69;87.72
47811;BME280;33575;52.600;7.318;2023-07-13T08:42:00;101308.82;;;18.84;87.55
47811;BME280;33575;52.600;7.318;2023-07-13T08:44:33;101306.84;;;19.02;86.44
47811;BME280;33575;52.600;7.318;2023-07-13T08:46:58;101305.28;;;19.25;87.22
47811;BME280;33575;52.600;7.318;2023-07-13T08:49:27;101307.38;;;19.35;85.13
47811;BME280;33575;52.600;7.318;2023-07-13T08:52:02;101297.86;;;19.48;85.24
47811;BME280;33575;52.600;7.318;2023-07-13T08:54:30;101303.91;;;19.44;84.89
47811;BME280;33575;52.600;7.318;2023-07-13T08:56:59;101308.59;;;19.51;86.41
47811;BME280;33575;52.600;7.318;2023-07-13T08:59:31;101307.48;;;19.62;85.04
47811;BME280;33575;52.600;7.318;2023-07-13T09:02:14;101308.05;;;19.74;85.40
47811;BME280;33575;52.600;7.318;2023-07-13T09:04:33;101303.65;;;19.72;84.84
47811;BME280;33575;52.600;7.318;2023-07-13T09:07:05;101304.29;;;19.92;84.74
47811;BME280;33575;52.600;7.318;2023-07-13T09:09:38;101301.58;;;20.01;83.93
47811;BME280;33575;52.600;7.318;2023-07-13T09:12:04;101305.59;;;20.12;83.55
47811;BME280;33575;52.600;7.318;2023-07-13T09:14:38;101309.65;;;20.20;83.65
47811;BME280;33575;52.600;7.318;2023-07-13T09:17:02;101301.50;;;20.28;83.11
47811;BME280;33575;52.600;7.318;2023-07-13T09:19:32;101294.28;;;20.43;85.13
47811;BME280;33575;52.600;7.318;2023-07-13T09:22:03;101290.42;;;20.53;83.49
47811;BME280;33575;52.600;7.318;2023-07-13T09:24:37;101291.53;;;20.66;81.71
47811;BME280;33575;52.600;7.318;2023-07-13T09:27:08;101292.11;;;20.67;81.26
47811;BME280;33575;52.600;7.318;2023-07-13T09:29:34;101294.70;;;20.82;81.07
47811;BME280;33575;52.600;7.318;2023-07-13T09:32:07;101302.33;;;20.74;81.09
47811;BME280;33575;52.600;7.318;2023-07-13T09:34:34;101293.49;;;20.63;78.93
47811;BME280;33575;52.600;7.318;2023-07-13T09:37:04;101297.98;;;20.59;78.77
47811;BME280;33575;52.600;7.318;2023-07-13T09:39:37;101300.25;;;20.57;79.03
47811;BME280;33575;52.600;7.318;2023-07-13T09:42:12;101313.23;;;20.42;80.14
47811;BME280;33575;52.600;7.318;2023-07-13T09:44:37;101316.55;;;20.52;78.47
47811;BME280;33575;52.600;7.318;2023-07-13T09:47:15;101315.31;;;20.52;77.08
47811;BME280;33575;52.600;7.318;2023-07-13T09:49:36;101316.82;;;20.57;77.50
47811;BME280;33575;52.600;7.318;2023-07-13T09:52:11;101325.67;;;20.57;77.80
47811;BME280;33575;52.600;7.318;2023-07-13T09:54:37;101324.28;;;20.37;78.18
47811;BME280;33575;52.600;7.318;2023-07-13T09:57:13;101327.23;;;20.39;77.52
47811;BME280;33575;52.600;7.318;2023-07-13T09:59:42;101322.27;;;20.33;77.44
47811;BME280;33575;52.600;7.318;2023-07-13T10:04:39;101333.54;;;20.11;78.54
47811;BME280;33575;52.600;7.318;2023-07-13T10:07:14;101334.56;;;20.09;77.90
47811;BME280;33575;52.600;7.318;2023-07-13T10:09:39;101339.69;;;19.91;78.93
47811;BME280;33575;52.600;7.318;2023-07-13T10:12:14;101338.51;;;19.75;79.35
47811;BME280;33575;52.600;7.318;2023-07-13T10:14:41;101350.86;;;19.79;80.43
47811;BME280;33575;52.600;7.318;2023-07-13T10:17:13;101366.29;;;19.67;83.34
47811;BME280;33575;52.600;7.318;2023-07-13T10:19:42;101382.07;;;19.34;86.47
47811;BME280;33575;52.600;7.318;2023-07-13T10:22:16;101404.78;;;19.21;89.19
47811;BME280;33575;52.600;7.318;2023-07-13T10:24:41;101403.66;;;18.56;90.61
47811;BME280;33575;52.600;7.318;2023-07-13T10:27:16;101409.24;;;18.22;90.47
47811;BME280;33575;52.600;7.318;2023-07-13T10:29:45;101402.69;;;17.53;92.18
47811;BME280;33575;52.600;7.318;2023-07-13T10:32:13;101411.73;;;17.30;93.79
47811;BME280;33575;52.600;7.318;2023-07-13T10:34:44;101416.57;;;16.71;95.80
47811;BME280;33575;52.600;7.318;2023-07-13T10:37:19;101411.38;;;16.96;95.36
47811;BME280;33575;52.600;7.318;2023-07-13T10:39:43;101407.13;;;16.95;96.12
47811;BME280;33575;52.600;7.318;2023-07-13T10:42:24;101402.74;;;16.85;95.45
47811;BME280;33575;52.600;7.318;2023-07-13T10:44:44;101399.67;;;16.98;94.42
47811;BME280;33575;52.600;7.318;2023-07-13T10:47:16;101398.68;;;17.03;95.28
47811;BME280;33575;52.600;7.318;2023-07-13T10:49:46;101395.08;;;16.91;96.60
47811;BME280;33575;52.600;7.318;2023-07-13T10:54:45;101391.50;;;16.75;98.36
47811;BME280;33575;52.600;7.318;2023-07-13T10:57:18;101395.04;;;16.92;96.12
47811;BME280;33575;52.600;7.318;2023-07-13T10:59:48;101388.16;;;17.07;96.84
47811;BME280;33575;52.600;7.318;2023-07-13T11:02:24;101389.20;;;17.26;95.31
47811;BME280;33575;52.600;7.318;2023-07-13T11:04:48;101390.65;;;17.42;94.54
47811;BME280;33575;52.600;7.318;2023-07-13T11:07:20;101394.26;;;17.60;95.91
47811;BME280;33575;52.600;7.318;2023-07-13T11:09:51;101397.75;;;17.78;96.26
47811;BME280;33575;52.600;7.318;2023-07-13T11:12:28;101410.37;;;17.91;95.19
47811;BME280;33575;52.600;7.318;2023-07-13T11:15:02;101413.85;;;18.03;95.08
47811;BME280;33575;52.600;7.318;2023-07-13T11:17:29;101417.60;;;18.14;95.07
47811;BME280;33575;52.600;7.318;2023-07-13T11:19:51;101426.31;;;18.19;95.76
47811;BME280;33575;52.600;7.318;2023-07-13T11:22:24;101427.97;;;18.25;94.76
47811;BME280;33575;52.600;7.318;2023-07-13T11:24:59;101417.17;;;18.31;94.70
47811;BME280;33575;52.600;7.318;2023-07-13T11:29:50;101435.07;;;18.26;93.84
47811;BME280;33575;52.600;7.318;2023-07-13T11:32:23;101434.86;;;18.16;94.20
47811;BME280;33575;52.600;7.318;2023-07-13T11:34:51;101424.74;;;18.22;94.09
47811;BME280;33575;52.600;7.318;2023-07-13T11:37:22;101446.76;;;18.24;94.31
47811;BME280;33575;52.600;7.318;2023-07-13T11:39:51;101440.98;;;18.15;95.21
47811;BME280;33575;52.600;7.318;2023-07-13T11:42:21;101434.54;;;17.74;96.45
47811;BME280;33575;52.600;7.318;2023-07-13T11:44:56;101447.65;;;17.40;96.83
47811;BME280;33575;52.600;7.318;2023-07-13T11:47:23;101445.21;;;17.39;96.77
47811;BME280;33575;52.600;7.318;2023-07-13T11:49:54;101446.38;;;17.22;97.29
47811;BME280;33575;52.600;7.318;2023-07-13T11:52:27;101448.94;;;17.13;97.89
47811;BME280;33575;52.600;7.318;2023-07-13T11:54:55;101438.43;;;17.04;98.01
47811;BME280;33575;52.600;7.318;2023-07-13T11:57:26;101444.34;;;16.99;98.22
47811;BME280;33575;52.600;7.318;2023-07-13T11:59:55;101440.91;;;16.89;99.82
47811;BME280;33575;52.600;7.318;2023-07-13T12:02:29;101434.41;;;17.02;96.37
47811;BME280;33575;52.600;7.318;2023-07-13T12:04:54;101428.40;;;17.11;96.86
47811;BME280;33575;52.600;7.318;2023-07-13T12:07:29;101425.87;;;17.14;96.95
47811;BME280;33575;52.600;7.318;2023-07-13T12:10:00;101430.22;;;17.22;98.37
47811;BME280;33575;52.600;7.318;2023-07-13T12:12:29;101427.66;;;17.48;96.51
47811;BME280;33575;52.600;7.318;2023-07-13T12:14:56;101424.43;;;17.63;97.12
47811;BME280;33575;52.600;7.318;2023-07-13T12:17:27;101419.47;;;17.74;96.12
47811;BME280;33575;52.600;7.318;2023-07-13T12:19:57;101416.37;;;17.89;95.78
47811;BME280;33575;52.600;7.318;2023-07-13T12:22:27;101416.62;;;18.00;96.77
47811;BME280;33575;52.600;7.318;2023-07-13T12:24:57;101416.26;;;18.05;94.51
47811;BME280;33575;52.600;7.318;2023-07-13T12:27:28;101417.08;;;18.21;96.59
47811;BME280;33575;52.600;7.318;2023-07-13T12:29:59;101411.60;;;18.36;95.81
47811;BME280;33575;52.600;7.318;2023-07-13T12:32:28;101409.96;;;18.56;95.85
47811;BME280;33575;52.600;7.318;2023-07-13T12:37:28;101406.65;;;18.93;94.74
47811;BME280;33575;52.600;7.318;2023-07-13T12:39:59;101414.80;;;19.12;95.40
47811;BME280;33575;52.600;7.318;2023-07-13T12:42:31;101413.32;;;19.22;94.90
47811;BME280;33575;52.600;7.318;2023-07-13T12:45:02;101414.83;;;19.22;96.27
47811;BME280;33575;52.600;7.318;2023-07-13T12:47:30;101417.98;;;19.33;93.42
47811;BME280;33575;52.600;7.318;2023-07-13T12:50:03;101426.61;;;19.29;94.06
47811;BME280;33575;52.600;7.318;2023-07-13T12:52:32;101425.67;;;19.44;94.57
47811;BME280;33575;52.600;7.318;2023-07-13T12:55:08;101429.59;;;19.61;95.16
47811;BME280;33575;52.600;7.318;2023-07-13T12:57:31;101425.88;;;19.71;94.16
47811;BME280;33575;52.600;7.318;2023-07-13T13:00:03;101430.98;;;19.69;92.44
47811;BME280;33575;52.600;7.318;2023-07-13T13:02:33;101429.29;;;19.64;91.67
47811;BME280;33575;52.600;7.318;2023-07-13T13:05:02;101430.53;;;19.71;92.16
47811;BME280;33575;52.600;7.318;2023-07-13T13:07:32;101433.49;;;19.82;93.06
47811;BME280;33575;52.600;7.318;2023-07-13T13:10:11;101436.71;;;19.99;93.70
47811;BME280;33575;52.600;7.318;2023-07-13T13:12:32;101437.63;;;19.92;93.12
47811;BME280;33575;52.600;7.318;2023-07-13T13:15:03;101438.89;;;19.74;88.98
47811;BME280;33575;52.600;7.318;2023-07-13T13:17:33;101437.41;;;19.74;89.96